createdAt,value
2023-03-12T00:00:10.624Z,1.36
2023-03-12T00:01:15.440Z,1.29
2023-03-12T00:02:18.043Z,1.27
2023-03-12T00:03:20.319Z,1.27
2023-03-12T00:04:22.536Z,1.25
2023-03-12T00:05:25.899Z,1.24
2023-03-12T00:06:28.168Z,1.26
2023-03-12T00:07:30.388Z,1.16
2023-03-12T00:08:32.845Z,1.17
2023-03-12T00:09:38.661Z,1.17
2023-03-12T00:10:41.481Z,1.19
2023-03-12T00:11:43.840Z,1.17
2023-03-12T00:12:46.448Z,1.25
2023-03-12T00:13:53.931Z,1.24
2023-03-12T00:14:56.138Z,1.18
2023-03-12T00:16:06.594Z,1.19
2023-03-12T00:17:09.078Z,1.29
2023-03-12T00:18:11.269Z,1.38
2023-03-12T00:19:13.997Z,1.42
2023-03-12T00:20:16.483Z,1.37
2023-03-12T00:21:21.189Z,1.37
2023-03-12T00:22:25.575Z,1.32
2023-03-12T00:23:28.397Z,1.32
2023-03-12T00:24:30.781Z,1.29
2023-03-12T00:25:33.115Z,1.32
2023-03-12T00:26:35.446Z,1.30
2023-03-12T00:27:37.713Z,1.34
2023-03-12T00:28:41.684Z,1.36
2023-03-12T00:29:44.263Z,1.42
2023-03-12T00:30:46.464Z,1.50
2023-03-12T00:31:48.779Z,1.43
2023-03-12T00:32:51.231Z,1.39
2023-03-12T00:33:54.934Z,1.33
2023-03-12T00:34:57.530Z,1.25
2023-03-12T00:36:01.101Z,1.27
2023-03-12T00:37:03.530Z,1.13
2023-03-12T00:38:05.957Z,1.17
2023-03-12T00:39:08.349Z,1.20
2023-03-12T00:40:11.685Z,1.17
2023-03-12T00:41:13.868Z,1.08
2023-03-12T00:42:16.695Z,1.03
2023-03-12T00:43:18.845Z,1.02
2023-03-12T00:44:21.017Z,1.06
2023-03-12T00:45:23.576Z,1.12
2023-03-12T00:46:25.868Z,1.21
2023-03-12T00:47:28.087Z,1.29
2023-03-12T00:48:30.503Z,1.38
2023-03-12T00:49:32.806Z,1.39
2023-03-12T00:50:35.240Z,1.43
2023-03-12T00:51:38.136Z,1.42
2023-03-12T00:52:40.498Z,1.33
2023-03-12T00:53:42.853Z,1.31
2023-03-12T00:54:45.546Z,1.25
2023-03-12T00:55:47.741Z,1.22
2023-03-12T00:56:50.848Z,1.29
2023-03-12T00:57:53.227Z,1.33
2023-03-12T00:58:55.630Z,1.23
2023-03-12T00:59:57.997Z,1.24
2023-03-12T01:01:00.492Z,1.19
2023-03-12T01:02:02.891Z,1.30
2023-03-12T01:03:05.242Z,1.30
2023-03-12T01:04:08.083Z,1.29
2023-03-12T01:05:12.838Z,1.32
2023-03-12T01:06:15.013Z,1.31
2023-03-12T01:07:17.742Z,1.33
2023-03-12T01:08:20.850Z,1.36
2023-03-12T01:09:23.297Z,1.38
2023-03-12T01:10:27.181Z,1.48
2023-03-12T01:11:29.434Z,1.50
2023-03-12T01:12:32.048Z,1.52
2023-03-12T01:13:34.287Z,1.42
2023-03-12T01:14:36.858Z,1.42
2023-03-12T01:15:39.438Z,1.46
2023-03-12T01:16:41.654Z,1.48
2023-03-12T01:17:44.126Z,1.38
2023-03-12T01:18:46.563Z,1.41
2023-03-12T01:19:48.717Z,1.41
2023-03-12T01:20:51.128Z,1.47
2023-03-12T01:21:53.400Z,1.43
2023-03-12T01:22:55.602Z,1.33
2023-03-12T01:23:58.101Z,1.24
2023-03-12T01:25:00.545Z,1.33
2023-03-12T01:26:03.710Z,1.38
2023-03-12T01:27:05.984Z,1.46
2023-03-12T01:28:08.193Z,1.36
2023-03-12T01:29:10.597Z,1.23
2023-03-12T01:30:13.238Z,1.16
2023-03-12T01:31:18.949Z,1.17
2023-03-12T01:32:21.462Z,1.18
2023-03-12T01:33:23.702Z,1.18
2023-03-12T01:34:26.198Z,1.10
2023-03-12T01:35:28.753Z,1.12
2023-03-12T01:36:31.526Z,1.14
2023-03-12T01:37:34.077Z,1.25
2023-03-12T01:38:36.264Z,1.31
2023-03-12T01:39:38.437Z,1.25
2023-03-12T01:40:41.915Z,1.27
2023-03-12T01:41:44.334Z,1.13
2023-03-12T01:42:57.855Z,1.10
2023-03-12T01:44:03.594Z,1.10
2023-03-12T01:45:07.254Z,1.08
2023-03-12T01:46:30.845Z,1.12
2023-03-12T01:47:33.385Z,1.08
2023-03-12T01:48:45.998Z,1.07
2023-03-12T01:49:51.080Z,1.01
2023-03-12T01:50:53.481Z,1.02
2023-03-12T01:52:07.635Z,0.98
2023-03-12T01:53:16.045Z,1.03
2023-03-12T01:54:22.692Z,0.93
2023-03-12T01:55:25.542Z,0.90
2023-03-12T01:56:32.135Z,0.89
2023-03-12T01:57:43.764Z,0.91
2023-03-12T01:58:51.038Z,0.90
2023-03-12T02:00:00.200Z,0.87
2023-03-12T02:01:02.699Z,0.96
2023-03-12T02:02:06.998Z,1.06
2023-03-12T02:03:10.399Z,1.01
2023-03-12T02:04:16.368Z,1.05
2023-03-12T02:05:30.477Z,0.96
2023-03-12T02:06:43.801Z,0.90
2023-03-12T02:07:46.980Z,0.92
2023-03-12T02:08:50.823Z,0.94
2023-03-12T02:09:53.203Z,0.97
2023-03-12T02:10:55.404Z,0.95
2023-03-12T02:11:57.961Z,0.92
2023-03-12T02:13:00.911Z,0.95
2023-03-12T02:14:03.264Z,0.98
2023-03-12T02:15:06.897Z,0.99
2023-03-12T02:16:09.860Z,1.00
2023-03-12T02:17:12.366Z,1.08
2023-03-12T02:18:19.581Z,1.17
2023-03-12T02:19:41.212Z,1.13
2023-03-12T02:20:58.813Z,1.14
2023-03-12T02:22:01.864Z,1.23
2023-03-12T02:23:13.844Z,1.29
2023-03-12T02:24:36.341Z,1.28
2023-03-12T02:25:49.388Z,1.27
2023-03-12T02:26:52.189Z,1.29
2023-03-12T02:27:54.617Z,1.28
2023-03-12T02:28:59.203Z,1.18
2023-03-12T02:30:03.656Z,1.16
2023-03-12T02:31:07.268Z,1.08
2023-03-12T02:32:15.606Z,1.02
2023-03-12T02:33:18.185Z,1.01
2023-03-12T02:34:20.506Z,1.04
2023-03-12T02:35:22.793Z,1.04
2023-03-12T02:36:25.028Z,1.04
2023-03-12T02:37:27.722Z,0.95
2023-03-12T02:38:37.600Z,0.91
2023-03-12T02:39:42.446Z,0.94
2023-03-12T02:40:47.732Z,1.00
2023-03-12T02:41:55.818Z,1.11
2023-03-12T02:42:58.469Z,1.09
2023-03-12T02:44:02.933Z,1.03
2023-03-12T02:45:05.656Z,0.94
2023-03-12T02:46:08.475Z,0.99
2023-03-12T02:47:10.694Z,1.06
2023-03-12T02:48:13.119Z,1.10
2023-03-12T02:49:16.722Z,1.26
2023-03-12T02:50:19.136Z,1.19
2023-03-12T02:51:21.379Z,1.17
2023-03-12T02:52:23.621Z,1.18
2023-03-12T02:53:26.009Z,1.18
2023-03-12T02:54:29.143Z,1.18
2023-03-12T02:55:31.523Z,1.24
2023-03-12T02:56:34.202Z,1.19
2023-03-12T02:57:37.667Z,1.17
2023-03-12T02:58:43.049Z,1.08
2023-03-12T02:59:46.205Z,1.18
2023-03-12T03:00:49.071Z,1.22
2023-03-12T03:01:56.165Z,1.18
2023-03-12T03:02:59.909Z,1.10
2023-03-12T03:04:03.850Z,1.12
2023-03-12T03:05:06.796Z,1.14
2023-03-12T03:06:09.551Z,1.11
2023-03-12T03:07:11.727Z,1.04
2023-03-12T03:08:14.239Z,1.04
2023-03-12T03:09:16.537Z,1.00
2023-03-12T03:10:19.128Z,1.02
2023-03-12T03:11:24.347Z,1.03
2023-03-12T03:12:28.598Z,1.09
2023-03-12T03:13:31.222Z,1.10
2023-03-12T03:14:33.583Z,1.10
2023-03-12T03:15:36.050Z,1.12
2023-03-12T03:16:38.548Z,1.09
2023-03-12T03:17:41.158Z,1.11
2023-03-12T03:18:43.658Z,1.11
2023-03-12T03:19:45.860Z,1.10
2023-03-12T03:21:02.510Z,1.11
2023-03-12T03:22:06.857Z,1.08
2023-03-12T03:23:09.508Z,0.94
2023-03-12T03:24:11.776Z,0.98
2023-03-12T03:25:14.187Z,0.97
2023-03-12T03:26:18.804Z,0.98
2023-03-12T03:27:21.265Z,1.01
2023-03-12T03:28:25.449Z,1.05
2023-03-12T03:29:27.849Z,1.02
2023-03-12T03:30:30.232Z,1.02
2023-03-12T03:31:32.886Z,1.05
2023-03-12T03:32:35.540Z,1.05
2023-03-12T03:33:39.261Z,1.11
2023-03-12T03:34:42.494Z,1.15
2023-03-12T03:35:45.114Z,1.15
2023-03-12T03:36:47.946Z,1.15
2023-03-12T03:37:52.006Z,1.22
2023-03-12T03:38:54.746Z,1.15
2023-03-12T03:39:56.965Z,1.22
2023-03-12T03:40:59.862Z,1.25
2023-03-12T03:42:02.155Z,1.28
2023-03-12T03:43:07.341Z,1.27
2023-03-12T03:44:10.303Z,1.28
2023-03-12T03:45:13.715Z,1.23
2023-03-12T03:46:19.049Z,1.12
2023-03-12T03:47:26.142Z,1.06
2023-03-12T03:48:28.813Z,0.97
2023-03-12T03:49:31.897Z,1.02
2023-03-12T03:50:37.788Z,0.99
2023-03-12T03:51:42.607Z,0.98
2023-03-12T03:52:46.996Z,0.93
2023-03-12T03:53:49.203Z,0.92
2023-03-12T03:54:51.677Z,0.86
2023-03-12T03:55:54.166Z,0.81
2023-03-12T03:56:56.387Z,0.81
2023-03-12T03:57:58.646Z,0.83
2023-03-12T03:59:01.997Z,0.89
2023-03-12T04:00:09.985Z,0.97
2023-03-12T04:01:21.079Z,0.94
2023-03-12T04:02:26.129Z,0.94
2023-03-12T04:03:28.631Z,0.91
2023-03-12T04:04:31.589Z,0.89
2023-03-12T04:05:34.206Z,0.88
2023-03-12T04:06:37.109Z,0.85
2023-03-12T04:07:39.316Z,0.79
2023-03-12T04:08:42.142Z,0.81
2023-03-12T04:09:48.589Z,0.76
2023-03-12T04:10:51.470Z,0.74
2023-03-12T04:11:53.706Z,0.74
2023-03-12T04:12:56.281Z,0.72
2023-03-12T04:13:59.036Z,0.72
2023-03-12T04:15:06.299Z,0.74
2023-03-12T04:16:09.297Z,0.81
2023-03-12T04:17:11.657Z,0.84
2023-03-12T04:18:14.421Z,0.99
2023-03-12T04:19:16.743Z,1.07
2023-03-12T04:20:18.979Z,1.04
2023-03-12T04:21:21.570Z,1.01
2023-03-12T04:22:25.236Z,0.94
2023-03-12T04:23:27.396Z,0.91
2023-03-12T04:24:30.763Z,0.83
2023-03-12T04:25:32.910Z,0.76
2023-03-12T04:26:35.467Z,0.78
2023-03-12T04:27:39.580Z,0.80
2023-03-12T04:28:41.752Z,0.75
2023-03-12T04:29:45.382Z,0.84
2023-03-12T04:30:59.725Z,0.83
2023-03-12T04:32:02.724Z,0.80
2023-03-12T04:33:06.532Z,0.81
2023-03-12T04:34:09.359Z,0.86
2023-03-12T04:35:11.859Z,0.79
2023-03-12T04:36:15.456Z,0.71
2023-03-12T04:37:20.263Z,0.65
2023-03-12T04:38:25.077Z,0.63
2023-03-12T04:39:28.293Z,0.52
2023-03-12T04:40:30.563Z,0.56
2023-03-12T04:41:34.829Z,0.55
2023-03-12T04:42:44.424Z,0.55
2023-03-12T04:43:46.813Z,0.56
2023-03-12T04:44:52.493Z,0.60
2023-03-12T04:45:55.813Z,0.57
2023-03-12T04:46:58.301Z,0.50
2023-03-12T04:48:01.711Z,0.55
2023-03-12T04:49:05.119Z,0.55
2023-03-12T04:50:10.889Z,0.63
2023-03-12T04:51:13.077Z,0.61
2023-03-12T04:52:17.798Z,0.52
2023-03-12T04:53:20.474Z,0.55
2023-03-12T04:54:24.038Z,0.56
2023-03-12T04:55:26.478Z,0.57
2023-03-12T04:56:28.891Z,0.58
2023-03-12T04:57:31.479Z,0.61
2023-03-12T04:58:34.068Z,0.63
2023-03-12T04:59:36.385Z,0.56
2023-03-12T05:00:40.602Z,0.56
2023-03-12T05:01:43.266Z,0.61
2023-03-12T05:02:53.456Z,0.66
2023-03-12T05:03:55.958Z,0.66
2023-03-12T05:04:58.636Z,0.64
2023-03-12T05:06:01.237Z,0.66
2023-03-12T05:07:03.653Z,0.77
2023-03-12T05:08:06.542Z,0.78
2023-03-12T05:09:10.325Z,0.81
2023-03-12T05:10:13.079Z,0.73
2023-03-12T05:11:15.696Z,0.74
2023-03-12T05:12:18.150Z,0.83
2023-03-12T05:13:22.455Z,0.80
2023-03-12T05:14:27.337Z,0.76
2023-03-12T05:15:31.221Z,0.81
2023-03-12T05:16:33.771Z,0.84
2023-03-12T05:17:36.416Z,0.86
2023-03-12T05:18:41.079Z,0.90
2023-03-12T05:19:43.413Z,0.86
2023-03-12T05:20:46.359Z,0.89
2023-03-12T05:21:48.901Z,0.88
2023-03-12T05:22:51.465Z,0.99
2023-03-12T05:23:53.841Z,1.03
2023-03-12T05:24:57.416Z,1.02
2023-03-12T05:25:59.676Z,0.98
2023-03-12T05:27:02.749Z,1.05
2023-03-12T05:28:06.245Z,1.01
2023-03-12T05:29:09.435Z,0.99
2023-03-12T05:30:12.497Z,0.96
2023-03-12T05:31:16.140Z,0.95
2023-03-12T05:32:18.579Z,1.07
2023-03-12T05:33:21.127Z,1.05
2023-03-12T05:34:23.319Z,1.13
2023-03-12T05:35:25.545Z,1.23
2023-03-12T05:36:28.059Z,1.30
2023-03-12T05:37:30.321Z,1.37
2023-03-12T05:38:32.498Z,1.42
2023-03-12T05:39:34.706Z,1.41
2023-03-12T05:40:40.306Z,1.37
2023-03-12T05:41:42.517Z,1.48
2023-03-12T05:42:48.729Z,1.43
2023-03-12T05:43:53.066Z,1.44
2023-03-12T05:44:56.475Z,1.52
2023-03-12T05:46:01.370Z,1.62
2023-03-12T05:47:03.981Z,1.65
2023-03-12T05:48:06.519Z,1.65
2023-03-12T05:49:09.316Z,1.63
2023-03-12T05:50:11.861Z,1.59
2023-03-12T05:51:14.653Z,1.53
2023-03-12T05:52:16.823Z,1.41
2023-03-12T05:53:19.449Z,1.46
2023-03-12T05:54:22.734Z,1.41
2023-03-12T05:55:26.697Z,1.38
2023-03-12T05:56:29.782Z,1.39
2023-03-12T05:57:32.121Z,1.35
2023-03-12T05:58:38.024Z,1.36
2023-03-12T05:59:40.283Z,1.33
2023-03-12T06:00:44.774Z,1.29
2023-03-12T06:01:48.349Z,1.22
2023-03-12T06:02:51.226Z,1.21
2023-03-12T06:03:55.186Z,1.26
2023-03-12T06:04:58.991Z,1.17
2023-03-12T06:06:01.195Z,1.16
2023-03-12T06:07:03.705Z,1.14
2023-03-12T06:08:07.463Z,1.16
2023-03-12T06:09:10.129Z,1.19
2023-03-12T06:10:12.793Z,1.16
2023-03-12T06:11:15.017Z,1.14
2023-03-12T06:12:17.395Z,1.17
2023-03-12T06:13:22.437Z,1.09
2023-03-12T06:14:24.815Z,1.10
2023-03-12T06:15:27.004Z,1.19
2023-03-12T06:16:30.192Z,1.23
2023-03-12T06:17:32.483Z,1.18
2023-03-12T06:18:35.596Z,1.12
2023-03-12T06:19:38.406Z,1.10
2023-03-12T06:20:40.616Z,1.21
2023-03-12T06:21:43.787Z,1.17
2023-03-12T06:22:46.496Z,1.29
2023-03-12T06:23:50.981Z,1.37
2023-03-12T06:24:57.483Z,1.57
2023-03-12T06:26:00.049Z,1.59
2023-03-12T06:27:02.531Z,1.65
2023-03-12T06:28:05.069Z,1.76
2023-03-12T06:29:07.365Z,1.69
2023-03-12T06:30:10.253Z,1.90
2023-03-12T06:31:13.098Z,2.10
2023-03-12T06:32:15.632Z,2.01
2023-03-12T06:33:17.800Z,1.85
2023-03-12T06:34:20.243Z,1.84
2023-03-12T06:35:22.796Z,1.88
2023-03-12T06:36:25.470Z,1.85
2023-03-12T06:37:28.035Z,1.83
2023-03-12T06:38:30.510Z,1.88
2023-03-12T06:39:32.840Z,1.94
2023-03-12T06:40:35.013Z,1.94
2023-03-12T06:41:37.414Z,1.99
2023-03-12T06:42:40.131Z,1.90
2023-03-12T06:43:43.957Z,1.83
2023-03-12T06:44:46.691Z,1.84
2023-03-12T06:45:48.897Z,1.79
2023-03-12T06:46:52.199Z,1.73
2023-03-12T06:47:54.555Z,1.70
2023-03-12T06:48:56.727Z,1.75
2023-03-12T06:49:59.227Z,1.75
2023-03-12T06:51:01.367Z,1.77
2023-03-12T06:52:03.875Z,1.95
2023-03-12T06:53:06.244Z,1.92
2023-03-12T06:54:08.415Z,2.03
2023-03-12T06:55:10.811Z,2.12
2023-03-12T06:56:13.867Z,2.15
2023-03-12T06:57:16.645Z,2.12
2023-03-12T06:58:19.250Z,2.04
2023-03-12T06:59:22.677Z,2.07
2023-03-12T07:00:25.055Z,2.17
2023-03-12T07:01:27.756Z,2.22
2023-03-12T07:02:30.180Z,2.16
2023-03-12T07:03:32.618Z,2.15
2023-03-12T07:04:36.407Z,2.33
2023-03-12T07:05:38.929Z,2.32
2023-03-12T07:06:41.232Z,2.24
2023-03-12T07:07:43.576Z,2.22
2023-03-12T07:08:45.874Z,2.30
2023-03-12T07:09:48.015Z,2.36
2023-03-12T07:10:50.372Z,2.36
2023-03-12T07:11:52.535Z,2.49
2023-03-12T07:12:54.925Z,2.61
2023-03-12T07:13:57.610Z,2.70
2023-03-12T07:14:59.920Z,2.61
2023-03-12T07:16:02.818Z,2.72
2023-03-12T07:17:05.191Z,2.99
2023-03-12T07:18:09.235Z,3.29
2023-03-12T07:19:11.572Z,3.52
2023-03-12T07:20:14.441Z,3.76
2023-03-12T07:21:22.865Z,3.98
2023-03-12T07:22:25.642Z,4.26
2023-03-12T07:23:27.921Z,4.59
2023-03-12T07:24:30.329Z,4.92
2023-03-12T07:25:37.176Z,5.16
2023-03-12T07:26:40.038Z,5.18
2023-03-12T07:27:42.279Z,5.29
2023-03-12T07:28:44.545Z,5.39
2023-03-12T07:29:46.716Z,5.51
2023-03-12T07:30:50.712Z,5.55
2023-03-12T07:31:52.964Z,5.49
2023-03-12T07:32:55.254Z,5.19
2023-03-12T07:33:57.826Z,4.92
2023-03-12T07:35:00.108Z,4.84
2023-03-12T07:36:03.312Z,4.76
2023-03-12T07:37:05.624Z,4.60
2023-03-12T07:38:08.551Z,4.75
2023-03-12T07:39:10.945Z,4.93
2023-03-12T07:40:13.266Z,5.06
2023-03-12T07:41:15.644Z,4.98
2023-03-12T07:42:18.125Z,4.98
2023-03-12T07:43:22.113Z,4.92
2023-03-12T07:44:26.572Z,4.94
2023-03-12T07:45:29.039Z,5.13
2023-03-12T07:46:31.587Z,5.05
2023-03-12T07:47:34.169Z,4.79
2023-03-12T07:48:36.639Z,4.88
2023-03-12T07:49:41.701Z,5.02
2023-03-12T07:50:44.457Z,4.96
2023-03-12T07:51:47.125Z,5.10
2023-03-12T07:52:49.315Z,5.09
2023-03-12T07:53:51.697Z,5.16
2023-03-12T07:54:56.333Z,5.47
2023-03-12T07:55:58.730Z,5.88
2023-03-12T07:57:01.412Z,6.21
2023-03-12T07:58:04.303Z,6.34
2023-03-12T07:59:06.919Z,6.43
2023-03-12T08:00:10.761Z,6.21
2023-03-12T08:01:16.355Z,5.84
2023-03-12T08:02:18.713Z,5.76
2023-03-12T08:03:21.400Z,5.75
2023-03-12T08:04:23.866Z,5.57
2023-03-12T08:05:27.050Z,5.56
2023-03-12T08:06:29.584Z,5.64
2023-03-12T08:07:35.259Z,5.81
2023-03-12T08:08:41.629Z,6.13
2023-03-12T08:09:44.351Z,6.43
2023-03-12T08:10:46.787Z,6.60
2023-03-12T08:11:49.169Z,6.28
2023-03-12T08:12:51.424Z,6.01
2023-03-12T08:13:53.830Z,6.06
2023-03-12T08:14:56.076Z,6.10
2023-03-12T08:15:58.852Z,5.99
2023-03-12T08:17:02.120Z,6.15
2023-03-12T08:18:04.340Z,6.42
2023-03-12T08:19:06.694Z,6.51
2023-03-12T08:20:10.214Z,6.61
2023-03-12T08:21:16.341Z,6.89
2023-03-12T08:22:19.067Z,7.18
2023-03-12T08:23:22.048Z,7.57
2023-03-12T08:24:24.768Z,7.83
2023-03-12T08:25:26.955Z,7.98
2023-03-12T08:26:29.257Z,8.44
2023-03-12T08:27:32.083Z,8.67
2023-03-12T08:28:34.392Z,8.65
2023-03-12T08:29:36.564Z,8.64
2023-03-12T08:30:39.059Z,8.79
2023-03-12T08:31:53.790Z,8.65
2023-03-12T08:33:04.809Z,8.76
2023-03-12T08:34:07.069Z,8.78
2023-03-12T08:35:10.185Z,8.50
2023-03-12T08:36:13.104Z,7.80
2023-03-12T08:37:15.330Z,7.63
2023-03-12T08:38:17.613Z,7.43
2023-03-12T08:39:19.751Z,7.15
2023-03-12T08:40:22.538Z,6.65
2023-03-12T08:41:24.770Z,6.43
2023-03-12T08:42:27.354Z,6.45
2023-03-12T08:43:30.051Z,6.55
2023-03-12T08:44:32.438Z,6.56
2023-03-12T08:45:37.879Z,6.96
2023-03-12T08:46:40.197Z,7.17
2023-03-12T08:47:44.296Z,7.30
2023-03-12T08:48:46.463Z,7.29
2023-03-12T08:49:48.799Z,7.32
2023-03-12T08:50:51.227Z,7.35
2023-03-12T08:51:53.411Z,7.36
2023-03-12T08:52:56.453Z,7.48
2023-03-12T08:53:58.636Z,7.53
2023-03-12T08:55:00.979Z,7.35
2023-03-12T08:56:04.314Z,7.18
2023-03-12T08:57:06.464Z,6.86
2023-03-12T08:58:09.041Z,6.66
2023-03-12T08:59:12.189Z,6.64
2023-03-12T09:00:15.975Z,6.69
2023-03-12T09:01:18.563Z,6.93
2023-03-12T09:02:20.825Z,7.23
2023-03-12T09:03:24.131Z,7.47
2023-03-12T09:04:26.513Z,7.66
2023-03-12T09:05:30.130Z,7.82
2023-03-12T09:06:34.202Z,7.95
2023-03-12T09:07:36.447Z,8.21
2023-03-12T09:08:39.664Z,8.30
2023-03-12T09:09:42.124Z,8.33
2023-03-12T09:10:50.205Z,8.45
2023-03-12T09:11:52.735Z,8.52
2023-03-12T09:12:54.896Z,8.44
2023-03-12T09:14:28.375Z,8.42
2023-03-12T09:15:19.781Z,8.26
2023-03-12T09:16:22.060Z,7.85
2023-03-12T09:17:24.457Z,7.82
2023-03-12T09:18:27.383Z,7.46
2023-03-12T09:19:29.708Z,7.23
2023-03-12T09:20:32.293Z,7.37
2023-03-12T09:21:34.502Z,7.47
2023-03-12T09:22:37.355Z,7.58
2023-03-12T09:23:40.934Z,7.70
2023-03-12T09:24:43.216Z,7.75
2023-03-12T09:25:46.738Z,7.75
2023-03-12T09:26:48.919Z,7.90
2023-03-12T09:27:51.148Z,8.03
2023-03-12T09:28:53.551Z,7.91
2023-03-12T09:30:02.957Z,7.97
2023-03-12T09:31:06.097Z,8.10
2023-03-12T09:32:09.455Z,8.17
2023-03-12T09:33:12.091Z,8.42
2023-03-12T09:34:14.417Z,8.73
2023-03-12T09:35:16.782Z,8.95
2023-03-12T09:36:18.983Z,8.83
2023-03-12T09:37:23.925Z,8.99
2023-03-12T09:38:27.772Z,9.15
2023-03-12T09:39:30.081Z,9.26
2023-03-12T09:40:39.920Z,8.87
2023-03-12T09:41:47.737Z,8.72
2023-03-12T09:42:52.109Z,8.28
2023-03-12T09:44:07.878Z,8.16
2023-03-12T09:45:30.481Z,8.01
2023-03-12T09:46:46.351Z,7.89
2023-03-12T09:47:52.881Z,7.78
2023-03-12T09:48:58.116Z,7.48
2023-03-12T09:50:34.245Z,7.31
2023-03-12T09:51:41.289Z,7.38
2023-03-12T09:53:11.608Z,7.51
2023-03-12T09:54:25.907Z,7.74
2023-03-12T09:55:35.298Z,7.89
2023-03-12T09:56:38.038Z,7.99
2023-03-12T09:57:40.929Z,8.04
2023-03-12T09:58:48.040Z,8.13
2023-03-12T09:59:52.584Z,8.25
2023-03-12T10:01:10.119Z,8.52
2023-03-12T10:02:52.869Z,8.81
2023-03-12T10:03:55.036Z,9.14
2023-03-12T10:05:07.128Z,9.32
2023-03-12T10:06:21.496Z,9.23
2023-03-12T10:07:28.417Z,9.08
2023-03-12T10:08:36.812Z,8.78
2023-03-12T10:10:14.589Z,8.47
2023-03-12T10:11:27.665Z,8.28
2023-03-12T10:13:01.058Z,8.26
2023-03-12T10:14:24.297Z,8.29
2023-03-12T10:16:08.390Z,8.43
2023-03-12T10:17:26.710Z,8.38
2023-03-12T10:18:48.531Z,8.40
2023-03-12T10:19:50.879Z,8.30
2023-03-12T10:21:31.416Z,8.38
2023-03-12T10:23:04.312Z,8.48
2023-03-12T10:24:15.241Z,8.55
2023-03-12T10:25:29.571Z,8.45
2023-03-12T10:26:38.947Z,8.54
2023-03-12T10:27:41.776Z,8.60
2023-03-12T10:28:50.040Z,8.54
2023-03-12T10:29:54.871Z,8.71
2023-03-12T10:31:03.917Z,8.81
2023-03-12T10:32:11.627Z,8.62
2023-03-12T10:33:18.019Z,8.65
2023-03-12T10:34:39.212Z,8.64
2023-03-12T10:35:42.230Z,8.70
2023-03-12T10:36:46.154Z,8.68
2023-03-12T10:37:57.164Z,8.74
2023-03-12T10:38:59.530Z,8.65
2023-03-12T10:40:02.180Z,8.65
2023-03-12T10:41:23.126Z,8.73
2023-03-12T10:42:28.540Z,8.61
2023-03-12T10:43:31.756Z,8.55
2023-03-12T10:44:34.703Z,8.44
2023-03-12T10:46:22.751Z,8.31
2023-03-12T10:47:36.557Z,8.35
2023-03-12T10:48:38.789Z,8.36
2023-03-12T10:49:41.057Z,8.33
2023-03-12T10:50:43.325Z,8.28
2023-03-12T10:52:01.293Z,8.41
2023-03-12T10:53:29.618Z,8.44
2023-03-12T10:54:40.757Z,8.55
2023-03-12T10:55:43.215Z,8.23
2023-03-12T10:56:50.942Z,8.08
2023-03-12T10:57:54.005Z,7.92
2023-03-12T10:58:59.938Z,7.93
2023-03-12T11:00:09.414Z,7.77
2023-03-12T11:01:22.601Z,7.79
2023-03-12T11:02:43.483Z,7.96
2023-03-12T11:03:46.308Z,8.02
2023-03-12T11:04:52.586Z,8.09
2023-03-12T11:05:58.649Z,8.12
2023-03-12T11:07:05.642Z,8.20
2023-03-12T11:08:23.860Z,8.29
2023-03-12T11:09:26.339Z,8.34
2023-03-12T11:10:44.946Z,8.42
2023-03-12T11:11:49.802Z,8.59
2023-03-12T11:13:02.130Z,8.68
2023-03-12T11:14:19.774Z,8.68
2023-03-12T11:15:26.410Z,8.61
2023-03-12T11:16:31.908Z,8.61
2023-03-12T11:17:34.349Z,8.71
2023-03-12T11:18:37.788Z,8.73
2023-03-12T11:19:44.331Z,8.70
2023-03-12T11:20:48.415Z,8.79
2023-03-12T11:22:05.004Z,8.80
2023-03-12T11:23:21.341Z,8.87
2023-03-12T11:24:23.523Z,8.85
2023-03-12T11:25:29.093Z,8.90
2023-03-12T11:26:44.441Z,8.93
2023-03-12T11:27:51.122Z,9.00
2023-03-12T11:29:02.346Z,8.89
2023-03-12T11:30:07.327Z,8.94
2023-03-12T11:31:20.624Z,9.08
2023-03-12T11:32:42.355Z,9.14
2023-03-12T11:33:45.066Z,9.14
2023-03-12T11:34:50.254Z,9.14
2023-03-12T11:36:08.970Z,9.02
2023-03-12T11:37:17.210Z,8.72
2023-03-12T11:38:24.477Z,8.87
2023-03-12T11:39:39.138Z,9.02
2023-03-12T11:40:53.701Z,9.11
2023-03-12T11:41:55.852Z,9.09
2023-03-12T11:43:43.699Z,9.21
2023-03-12T11:45:21.910Z,9.17
2023-03-12T11:46:49.763Z,9.01
2023-03-12T11:48:10.938Z,8.92
2023-03-12T11:49:25.199Z,9.05
2023-03-12T11:50:52.180Z,9.10
2023-03-12T11:52:10.123Z,9.14
2023-03-12T11:53:21.462Z,9.10
2023-03-12T11:54:45.008Z,9.05
2023-03-12T11:55:57.063Z,9.13
2023-03-12T11:57:14.949Z,9.12
2023-03-12T11:58:44.987Z,9.02
2023-03-12T11:59:55.953Z,8.96
2023-03-12T12:01:07.161Z,9.15
2023-03-12T12:02:46.652Z,9.20
2023-03-12T12:03:51.686Z,9.30
2023-03-12T12:05:18.457Z,9.25
2023-03-12T12:07:01.970Z,9.27
2023-03-12T12:08:06.995Z,9.33
2023-03-12T12:09:27.806Z,9.46
2023-03-12T12:10:42.101Z,9.50
2023-03-12T12:12:05.558Z,9.72
2023-03-12T12:13:15.003Z,9.81
2023-03-12T12:14:32.333Z,9.81
2023-03-12T12:15:42.097Z,9.88
2023-03-12T12:17:07.068Z,9.83
2023-03-12T12:18:37.143Z,9.85
2023-03-12T12:20:17.460Z,9.85
2023-03-12T12:22:11.055Z,9.64
2023-03-12T12:23:18.909Z,9.74
2023-03-12T12:24:42.597Z,9.66
2023-03-12T12:26:06.334Z,9.61
2023-03-12T12:27:28.752Z,9.70
2023-03-12T12:28:40.396Z,9.64
2023-03-12T12:30:04.624Z,9.66
2023-03-12T12:31:22.244Z,9.66
2023-03-12T12:32:45.056Z,9.57
2023-03-12T12:34:28.501Z,9.81
2023-03-12T12:35:37.138Z,9.95
2023-03-12T12:36:39.375Z,9.81
2023-03-12T12:37:47.499Z,9.79
2023-03-12T12:39:06.064Z,9.91
2023-03-12T12:40:20.998Z,9.76
2023-03-12T12:41:31.666Z,9.81
2023-03-12T12:44:11.710Z,9.85
2023-03-12T12:45:15.579Z,9.91
2023-03-12T12:46:35.897Z,9.97
2023-03-12T12:47:51.328Z,10.09
2023-03-12T12:49:01.394Z,10.13
2023-03-12T12:50:04.691Z,9.98
2023-03-12T12:51:09.359Z,9.84
2023-03-12T12:52:22.665Z,9.85
2023-03-12T12:53:37.498Z,9.95
2023-03-12T12:54:55.564Z,10.09
2023-03-12T12:56:10.113Z,10.20
2023-03-12T12:57:18.273Z,10.14
2023-03-12T12:58:36.963Z,10.01
2023-03-12T13:00:00.563Z,9.96
2023-03-12T13:01:03.432Z,10.02
2023-03-12T13:02:21.119Z,9.89
2023-03-12T13:03:26.362Z,9.80
2023-03-12T13:04:35.203Z,9.62
2023-03-12T13:05:37.506Z,9.62
2023-03-12T13:07:14.242Z,9.72
2023-03-12T13:08:35.148Z,9.94
2023-03-12T13:09:40.518Z,10.04
2023-03-12T13:10:58.121Z,9.94
2023-03-12T13:12:42.171Z,10.06
2023-03-12T13:14:02.837Z,9.85
2023-03-12T13:15:33.736Z,9.91
2023-03-12T13:16:42.507Z,9.92
2023-03-12T13:17:56.794Z,9.86
2023-03-12T13:19:03.138Z,9.83
2023-03-12T13:20:11.054Z,9.84
2023-03-12T13:21:25.082Z,9.72
2023-03-12T13:22:59.496Z,9.72
2023-03-12T13:24:10.584Z,9.78
2023-03-12T13:25:31.818Z,9.70
2023-03-12T13:26:51.088Z,9.62
2023-03-12T13:28:32.440Z,9.52
2023-03-12T13:29:36.391Z,9.57
2023-03-12T13:30:38.655Z,9.51
2023-03-12T13:31:42.530Z,9.56
2023-03-12T13:32:48.040Z,9.55
2023-03-12T13:34:19.193Z,9.21
2023-03-12T13:35:21.265Z,9.16
2023-03-12T13:36:26.038Z,9.05
2023-03-12T13:37:50.067Z,9.05
2023-03-12T13:38:55.373Z,9.12
2023-03-12T13:40:02.248Z,9.02
2023-03-12T13:41:06.256Z,8.83
2023-03-12T13:42:35.075Z,8.79
2023-03-12T13:43:37.370Z,8.90
2023-03-12T13:44:40.562Z,8.88
2023-03-12T13:46:10.332Z,9.00
2023-03-12T13:47:37.073Z,9.09
2023-03-12T13:48:46.143Z,9.11
2023-03-12T13:50:06.426Z,9.06
2023-03-12T13:51:17.084Z,9.04
2023-03-12T13:52:30.820Z,9.11
2023-03-12T13:53:40.674Z,9.26
2023-03-12T13:54:47.098Z,9.30
2023-03-12T13:56:13.150Z,9.36
2023-03-12T13:57:30.662Z,9.34
2023-03-12T13:58:41.432Z,8.96
2023-03-12T13:59:44.440Z,8.96
2023-03-12T14:00:49.878Z,8.80
2023-03-12T14:01:57.754Z,8.83
2023-03-12T14:03:11.993Z,8.84
2023-03-12T14:04:46.189Z,8.78
2023-03-12T14:05:55.391Z,8.65
2023-03-12T14:07:18.781Z,8.23
2023-03-12T14:08:29.866Z,8.34
2023-03-12T14:09:42.119Z,8.44
2023-03-12T14:11:10.438Z,8.66
2023-03-12T14:12:53.987Z,8.70
2023-03-12T14:14:29.704Z,8.89
2023-03-12T14:15:44.385Z,8.90
2023-03-12T14:16:51.744Z,8.87
2023-03-12T14:18:19.174Z,8.92
2023-03-12T14:19:27.304Z,8.89
2023-03-12T14:20:30.518Z,8.86
2023-03-12T14:21:39.940Z,8.74
2023-03-12T14:22:46.818Z,8.68
2023-03-12T14:23:56.965Z,8.73
2023-03-12T14:25:06.312Z,8.69
2023-03-12T14:26:17.328Z,8.73
2023-03-12T14:27:25.812Z,8.83
2023-03-12T14:28:30.925Z,8.81
2023-03-12T14:29:42.353Z,8.84
2023-03-12T14:31:01.417Z,8.70
2023-03-12T14:32:12.758Z,8.56
2023-03-12T14:33:16.434Z,8.36
2023-03-12T14:34:22.375Z,8.34
2023-03-12T14:35:40.603Z,8.40
2023-03-12T14:37:09.123Z,8.48
2023-03-12T14:38:18.182Z,8.72
2023-03-12T14:39:42.188Z,8.86
2023-03-12T14:40:48.046Z,8.88
2023-03-12T14:42:00.132Z,8.90
2023-03-12T14:43:02.799Z,8.96
2023-03-12T14:44:25.781Z,8.94
2023-03-12T14:45:28.295Z,8.93
2023-03-12T14:46:30.860Z,8.90
2023-03-12T14:47:47.444Z,8.96
2023-03-12T14:48:52.403Z,8.90
2023-03-12T14:49:57.587Z,8.81
2023-03-12T14:51:01.195Z,8.90
2023-03-12T14:52:04.361Z,8.93